Time;durP1;ratioP1;P1;durP2;ratioP2;P2;SDS_P1;SDS_P2;PMS_P1;PMS_P2;Temp;Humidity;BMP_temperature;BMP_pressure;BME280_temperature;BME280_humidity;BME280_pressure;Samples;Min_cycle;Max_cycle;Signal;HPM_P1;HPM_P2
2022/09/21 00:01:08;;;;;;;8.68;5.72;;;;;;;-142.57;100.00;68379.81;5052742;28;20033;-83
2022/09/21 00:03:34;;;;;;;15.47;5.20;;;;;;;-142.57;100.00;68379.81;5053537;28;20044;-82
2022/09/21 00:06:09;;;;;;;15.30;5.07;;;;;;;-142.57;100.00;68379.81;5052934;28;20033;-79
2022/09/21 00:08:35;;;;;;;14.77;4.80;;;;;;;-142.57;100.00;68379.81;5036648;28;20032;-79
2022/09/21 00:11:00;;;;;;;5.72;4.03;;;;;;;-142.57;100.00;68379.81;5053048;28;20028;-79
2022/09/21 00:13:27;;;;;;;7.13;4.78;;;;;;;-142.57;100.00;68379.81;5051203;28;20391;-79
2022/09/21 00:15:54;;;;;;;11.27;5.38;;;;;;;-142.57;100.00;68379.81;5051666;28;20029;-80
2022/09/21 00:18:19;;;;;;;8.77;5.13;;;;;;;-142.57;100.00;68379.81;5017035;28;20025;-80
2022/09/21 00:20:45;;;;;;;6.47;4.68;;;;;;;-142.57;100.00;68379.81;5048922;28;20387;-80
2022/09/21 00:23:10;;;;;;;8.80;4.93;;;;;;;-142.57;100.00;68379.81;5066599;28;20056;-79
2022/09/21 00:25:36;;;;;;;6.65;4.53;;;;;;;-142.57;100.00;68379.81;5053211;28;20033;-79
2022/09/21 00:28:02;;;;;;;9.52;4.47;;;;;;;-142.57;100.00;68379.81;5052413;28;20025;-79
2022/09/21 00:30:27;;;;;;;10.18;4.82;;;;;;;-142.57;100.00;68379.81;5051912;28;20487;-81
2022/09/21 00:32:53;;;;;;;7.72;4.43;;;;;;;-142.57;100.00;68379.81;5061885;28;20025;-80
2022/09/21 00:35:18;;;;;;;13.73;5.47;;;;;;;-142.57;100.00;68379.81;5057646;28;20068;-82
2022/09/21 00:37:43;;;;;;;8.32;4.18;;;;;;;-142.57;100.00;68379.81;5045184;28;20032;-78
2022/09/21 00:40:09;;;;;;;5.78;3.83;;;;;;;-142.57;100.00;68379.81;5059184;28;20034;-80
2022/09/21 00:42:35;;;;;;;8.95;4.57;;;;;;;-142.57;100.00;68379.81;5057859;28;20021;-81
2022/09/21 00:45:01;;;;;;;12.15;5.00;;;;;;;-142.57;100.00;68379.81;5062123;28;20021;-80
2022/09/21 00:47:29;;;;;;;6.43;4.65;;;;;;;-142.57;100.00;68379.81;5054989;28;20446;-80
2022/09/21 00:49:56;;;;;;;11.82;4.80;;;;;;;-142.57;100.00;68379.81;5053564;28;20135;-80
2022/09/21 00:52:23;;;;;;;8.45;4.32;;;;;;;-142.57;100.00;68379.81;5051821;28;20037;-80
2022/09/21 00:54:52;;;;;;;7.07;3.88;;;;;;;-142.57;100.00;68379.81;5031601;28;20032;-80
2022/09/21 00:57:20;;;;;;;9.90;4.50;;;;;;;-142.57;100.00;68379.81;5051826;28;20017;-81
2022/09/21 00:59:48;;;;;;;5.63;4.13;;;;;;;-142.57;100.00;68379.81;5036273;28;20579;-81
2022/09/21 01:02:14;;;;;;;7.30;3.90;;;;;;;-142.57;100.00;68379.81;5065060;28;20090;-81
2022/09/21 01:04:40;;;;;;;8.60;4.15;;;;;;;-142.57;100.00;68379.81;5045775;28;20044;-81
2022/09/21 01:07:11;;;;;;;10.23;4.80;;;;;;;-142.57;100.00;68379.81;5031846;28;20033;-81
2022/09/21 01:09:37;;;;;;;11.55;4.13;;;;;;;-142.57;100.00;68379.81;5051270;28;20029;-82
2022/09/21 01:12:09;;;;;;;9.63;3.70;;;;;;;-142.57;100.00;68379.81;5051673;28;20029;-81
2022/09/21 01:14:46;;;;;;;8.80;4.68;;;;;;;-142.57;100.00;68379.81;5054232;28;20515;-81
2022/09/21 01:17:42;;;;;;;9.02;4.72;;;;;;;-142.57;100.00;68379.81;5061414;28;20463;-81
2022/09/21 01:20:32;;;;;;;9.82;5.57;;;;;;;-142.57;100.00;68379.81;5053750;28;20040;-82
2022/09/21 01:23:21;;;;;;;6.32;4.60;;;;;;;-142.57;100.00;68379.81;5050240;28;20037;-80
2022/09/21 01:26:09;;;;;;;9.20;4.72;;;;;;;-142.57;100.00;68379.81;5040245;28;20025;-80
2022/09/21 01:28:55;;;;;;;9.40;4.50;;;;;;;-142.57;100.00;68379.81;5047206;28;20029;-80
2022/09/21 01:31:25;;;;;;;6.70;4.38;;;;;;;-142.57;100.00;68379.81;5052731;28;20095;-81
2022/09/21 01:33:54;;;;;;;6.28;4.18;;;;;;;-142.57;100.00;68379.81;5064966;28;20036;-81
2022/09/21 01:36:24;;;;;;;6.63;4.55;;;;;;;-142.57;100.00;68379.81;5059849;28;20410;-80
2022/09/21 01:38:51;;;;;;;12.05;4.22;;;;;;;-142.57;100.00;68379.81;5051568;28;20387;-81
2022/09/21 01:41:21;;;;;;;7.30;4.00;;;;;;;-142.57;100.00;68379.81;5058607;28;20066;-80
2022/09/21 01:43:54;;;;;;;9.57;4.13;;;;;;;-142.57;100.00;68379.81;5051826;28;20574;-82
2022/09/21 01:46:21;;;;;;;8.07;3.97;;;;;;;-142.57;100.00;68379.81;5037978;28;20041;-81
2022/09/21 01:48:50;;;;;;;7.72;4.10;;;;;;;-142.57;100.00;68379.81;5050048;28;20029;-78
2022/09/21 01:51:18;;;;;;;7.05;4.10;;;;;;;-142.57;100.00;68379.81;5046113;28;20456;-77
2022/09/21 01:53:48;;;;;;;9.63;4.32;;;;;;;-142.57;100.00;68379.81;5055196;28;20079;-78
2022/09/21 01:56:24;;;;;;;8.88;4.43;;;;;;;-142.57;100.00;68379.81;5035856;28;20025;-82
2022/09/21 01:59:23;;;;;;;11.00;4.43;;;;;;;-142.57;100.00;68379.81;5071512;28;20119;-77
2022/09/21 02:01:59;;;;;;;23.40;4.63;;;;;;;-142.57;100.00;68379.81;5051702;28;20112;-76
2022/09/21 02:04:24;;;;;;;4.40;2.97;;;;;;;-142.57;100.00;68379.81;5050822;28;20064;-78
2022/09/21 02:06:50;;;;;;;9.07;4.35;;;;;;;-142.57;100.00;68379.81;5050958;28;20491;-78
2022/09/21 02:09:16;;;;;;;12.18;4.75;;;;;;;-142.57;100.00;68379.81;5052429;28;20095;-78
2022/09/21 02:11:42;;;;;;;6.97;4.15;;;;;;;-142.57;100.00;68379.81;5034308;28;20037;-78
2022/09/21 02:14:12;;;;;;;7.38;4.85;;;;;;;-142.57;100.00;68379.81;5049733;28;20051;-78
2022/09/21 02:16:43;;;;;;;7.32;4.38;;;;;;;-142.57;100.00;68379.81;5049166;28;20029;-79
2022/09/21 02:19:36;;;;;;;7.95;4.75;;;;;;;-142.57;100.00;68379.81;5050851;28;20104;-79
2022/09/21 02:22:13;;;;;;;6.68;4.32;;;;;;;-142.57;100.00;68379.81;5007172;28;20083;-79
2022/09/21 02:24:42;;;;;;;6.47;4.32;;;;;;;-142.57;100.00;68379.81;5020046;28;20037;-78
2022/09/21 02:27:30;;;;;;;9.80;4.75;;;;;;;-142.57;100.00;68379.81;5025220;28;20037;-77
2022/09/21 02:30:16;;;;;;;5.15;3.55;;;;;;;-142.57;100.00;68379.81;5051055;28;20021;-79
2022/09/21 02:33:19;;;;;;;6.30;3.83;;;;;;;-142.57;100.00;68379.81;5039003;28;20490;-80
2022/09/21 02:36:07;;;;;;;6.57;3.70;;;;;;;-142.57;100.00;68379.81;5050107;28;20087;-80
2022/09/21 02:38:39;;;;;;;6.63;4.30;;;;;;;-142.57;100.00;68379.81;5051002;28;20035;-80
2022/09/21 02:41:23;;;;;;;9.77;4.95;;;;;;;-142.57;100.00;68379.81;5050715;28;20031;-79
2022/09/21 02:43:55;;;;;;;6.83;4.67;;;;;;;-142.57;100.00;68379.81;5049059;28;20036;-78
2022/09/21 02:46:31;;;;;;;9.57;4.88;;;;;;;-142.57;100.00;68379.81;5044871;28;20357;-78
2022/09/21 02:49:02;;;;;;;15.70;5.53;;;;;;;-142.57;100.00;68379.81;5057133;28;20060;-78
2022/09/21 02:51:31;;;;;;;7.63;4.43;;;;;;;-142.57;100.00;68379.81;5053555;28;20394;-78
2022/09/21 02:53:58;;;;;;;9.13;5.43;;;;;;;-142.57;100.00;68379.81;5054619;28;20083;-78
2022/09/21 02:56:24;;;;;;;6.32;4.38;;;;;;;-142.57;100.00;68379.81;5053825;28;20025;-79
2022/09/21 02:58:53;;;;;;;5.03;3.83;;;;;;;-142.57;100.00;68379.81;5054234;28;20039;-79
2022/09/21 03:01:19;;;;;;;9.82;4.88;;;;;;;-142.57;100.00;68379.81;5054001;28;20052;-80
2022/09/21 03:03:46;;;;;;;16.35;4.82;;;;;;;-142.57;100.00;68379.81;5036029;28;20025;-79
2022/09/21 03:06:11;;;;;;;8.82;4.95;;;;;;;-142.57;100.00;68379.81;5051020;28;20032;-79
2022/09/21 03:08:36;;;;;;;8.30;4.47;;;;;;;-142.57;100.00;68379.81;5055425;28;20086;-79
2022/09/21 03:11:02;;;;;;;11.32;4.75;;;;;;;-142.57;100.00;68379.81;5054115;28;20096;-80
2022/09/21 03:13:27;;;;;;;11.95;4.90;;;;;;;-142.57;100.00;68379.81;5044932;28;20029;-79
2022/09/21 03:16:00;;;;;;;8.32;4.97;;;;;;;-142.57;100.00;68379.81;5054650;28;20029;-79
2022/09/21 03:18:26;;;;;;;9.37;5.33;;;;;;;-142.57;100.00;68379.81;5053621;28;20086;-79
2022/09/21 03:20:51;;;;;;;8.95;4.40;;;;;;;-142.57;100.00;68379.81;5054945;28;20421;-79
2022/09/21 03:23:17;;;;;;;6.78;4.80;;;;;;;-142.57;100.00;68379.81;5051592;28;20057;-80
2022/09/21 03:25:46;;;;;;;7.60;5.15;;;;;;;-142.57;100.00;68379.81;5047026;28;20032;-80
2022/09/21 03:28:13;;;;;;;7.72;4.75;;;;;;;-142.57;100.00;68379.81;5054362;28;20032;-80
2022/09/21 03:30:38;;;;;;;7.97;4.03;;;;;;;-142.57;100.00;68379.81;5033295;28;20017;-80
2022/09/21 03:33:05;;;;;;;8.30;4.93;;;;;;;-142.57;100.00;68379.81;5045342;28;20375;-80
2022/09/21 03:35:32;;;;;;;9.30;5.10;;;;;;;-142.57;100.00;68379.81;5054082;28;20047;-79
2022/09/21 03:37:58;;;;;;;8.95;5.10;;;;;;;-142.57;100.00;68379.81;5053629;28;20110;-78
2022/09/21 03:40:26;;;;;;;10.48;4.93;;;;;;;-142.57;100.00;68379.81;5053459;28;20068;-78
2022/09/21 03:42:51;;;;;;;12.80;5.18;;;;;;;-142.57;100.00;68379.81;5027331;28;20036;-78
2022/09/21 03:45:17;;;;;;;13.05;5.55;;;;;;;-142.57;100.00;68379.81;5022518;28;20030;-78
2022/09/21 03:47:42;;;;;;;8.77;5.35;;;;;;;-142.57;100.00;68379.81;5032115;28;20078;-78
2022/09/21 03:50:08;;;;;;;11.35;4.70;;;;;;;-142.57;100.00;68379.81;5053559;28;20499;-78
2022/09/21 03:52:35;;;;;;;6.88;4.15;;;;;;;-142.57;100.00;68379.81;5054359;28;20029;-78
2022/09/21 03:55:02;;;;;;;7.70;4.57;;;;;;;-142.57;100.00;68379.81;5044218;28;20028;-78
2022/09/21 03:57:27;;;;;;;9.52;4.75;;;;;;;-142.57;100.00;68379.81;5054001;28;20498;-77
2022/09/21 03:59:53;;;;;;;18.65;4.90;;;;;;;-142.57;100.00;68379.81;5049483;28;20029;-78
2022/09/21 04:02:18;;;;;;;15.95;5.13;;;;;;;-142.57;100.00;68379.81;5054243;28;20068;-78
2022/09/21 04:04:43;;;;;;;13.75;5.38;;;;;;;-142.57;100.00;68379.81;5052542;28;20101;-78
2022/09/21 04:07:09;;;;;;;7.05;4.05;;;;;;;-142.57;100.00;68379.81;5053153;28;20021;-78
2022/09/21 04:09:34;;;;;;;13.07;4.93;;;;;;;-142.57;100.00;68379.81;5053430;28;20629;-77
2022/09/21 04:12:00;;;;;;;5.75;4.38;;;;;;;-142.57;100.00;68379.81;5039893;28;20032;-77
2022/09/21 04:14:26;;;;;;;10.90;5.05;;;;;;;-142.57;100.00;68379.81;5049618;28;20025;-83
2022/09/21 04:16:51;;;;;;;18.30;4.60;;;;;;;-142.57;100.00;68379.81;5052766;28;20119;-79
2022/09/21 04:19:17;;;;;;;6.68;4.43;;;;;;;-142.57;100.00;68379.81;5052747;28;20446;-79
2022/09/21 04:21:43;;;;;;;8.43;4.95;;;;;;;-142.57;100.00;68379.81;5045325;28;20040;-79
2022/09/21 04:24:08;;;;;;;13.80;5.03;;;;;;;-142.57;100.00;68379.81;5052500;28;20021;-78
2022/09/21 04:26:34;;;;;;;9.55;5.40;;;;;;;-142.57;100.00;68379.81;5053969;28;20024;-79
2022/09/21 04:29:00;;;;;;;9.85;4.80;;;;;;;-142.57;100.00;68379.81;5051097;28;20033;-80
2022/09/21 04:31:27;;;;;;;7.13;5.03;;;;;;;-142.57;100.00;68379.81;5047804;28;20032;-79
2022/09/21 04:33:54;;;;;;;9.85;5.07;;;;;;;-142.57;100.00;68379.81;5055390;28;20092;-80
2022/09/21 04:36:22;;;;;;;9.55;5.70;;;;;;;-142.57;100.00;68379.81;5059465;28;20086;-79
2022/09/21 04:38:47;;;;;;;10.15;5.75;;;;;;;-142.57;100.00;68379.81;5043411;28;20017;-81
2022/09/21 04:41:13;;;;;;;7.57;5.05;;;;;;;-142.57;100.00;68379.81;5022469;28;20066;-80
2022/09/21 04:43:46;;;;;;;8.20;5.28;;;;;;;-142.57;100.00;68379.81;5032521;28;20071;-80
2022/09/21 04:46:14;;;;;;;8.85;5.25;;;;;;;-142.57;100.00;68379.81;5039978;28;20075;-80
2022/09/21 04:48:40;;;;;;;6.32;4.65;;;;;;;-142.57;100.00;68379.81;5052386;28;20059;-80
2022/09/21 04:51:06;;;;;;;11.70;6.70;;;;;;;-142.57;100.00;68379.81;5050033;28;20468;-82
2022/09/21 04:53:33;;;;;;;12.88;7.15;;;;;;;-142.57;100.00;68379.81;5045046;28;20029;-80
2022/09/21 04:55:58;;;;;;;13.23;7.72;;;;;;;-142.57;100.00;68379.81;5046665;28;20047;-81
2022/09/21 04:58:24;;;;;;;12.13;6.70;;;;;;;-142.57;100.00;68379.81;5052199;28;20108;-81
2022/09/21 05:00:51;;;;;;;7.97;6.55;;;;;;;-142.57;100.00;68379.81;5053386;28;20028;-80
2022/09/21 05:03:17;;;;;;;10.55;6.35;;;;;;;-142.57;100.00;68379.81;5051023;28;20025;-80
2022/09/21 05:05:51;;;;;;;15.48;7.63;;;;;;;-142.57;100.00;68379.81;5051537;28;20021;-80
2022/09/21 05:08:17;;;;;;;13.93;7.65;;;;;;;-142.57;100.00;68379.81;5051319;28;20029;-76
2022/09/21 05:10:43;;;;;;;14.82;7.78;;;;;;;-142.57;100.00;68379.81;5052951;28;20437;-75
2022/09/21 05:13:09;;;;;;;15.13;7.50;;;;;;;-142.57;100.00;68379.81;5050427;28;20036;-76
2022/09/21 05:15:37;;;;;;;12.45;8.23;;;;;;;-142.57;100.00;68379.81;5052475;28;20474;-75
2022/09/21 05:18:02;;;;;;;13.90;8.45;;;;;;;-142.57;100.00;68379.81;5051570;28;20447;-75
2022/09/21 05:20:28;;;;;;;13.13;7.70;;;;;;;-142.57;100.00;68379.81;5051951;28;20057;-75
2022/09/21 05:22:53;;;;;;;12.80;8.10;;;;;;;-142.57;100.00;68379.81;5066446;28;20119;-76
2022/09/21 05:25:18;;;;;;;14.32;7.70;;;;;;;-142.57;100.00;68379.81;5051642;28;20021;-78
2022/09/21 05:27:43;;;;;;;9.10;6.60;;;;;;;-142.57;100.00;68379.81;5065353;28;20120;-77
2022/09/21 05:30:10;;;;;;;9.48;6.78;;;;;;;-142.57;100.00;68379.81;5063937;28;20032;-75
2022/09/21 05:32:47;;;;;;;11.30;7.22;;;;;;;-142.57;100.00;68379.81;5051548;28;20032;-78
2022/09/21 05:35:31;;;;;;;13.30;7.03;;;;;;;-142.57;100.00;68379.81;5052041;28;20029;-78
2022/09/21 05:38:09;;;;;;;9.05;6.85;;;;;;;-142.57;100.00;68379.81;5056727;28;20033;-76
2022/09/21 05:40:35;;;;;;;9.55;6.88;;;;;;;-142.57;100.00;68379.81;5030630;28;20483;-76
2022/09/21 05:43:01;;;;;;;12.50;7.35;;;;;;;-142.57;100.00;68379.81;5062413;28;20063;-76
2022/09/21 05:45:27;;;;;;;11.80;7.95;;;;;;;-142.57;100.00;68379.81;5045906;28;20018;-76
2022/09/21 05:47:53;;;;;;;13.43;7.38;;;;;;;-142.57;100.00;68379.81;5050932;28;20025;-76
2022/09/21 05:50:44;;;;;;;10.13;6.85;;;;;;;-142.57;100.00;68379.81;5043773;28;20060;-76
2022/09/21 05:53:37;;;;;;;14.70;7.35;;;;;;;-142.57;100.00;68379.81;5019221;28;20036;-77
2022/09/21 05:56:21;;;;;;;8.50;6.53;;;;;;;-142.57;100.00;68379.81;5000400;28;20137;-76
2022/09/21 05:59:01;;;;;;;12.53;8.43;;;;;;;-142.57;100.00;68379.81;5025668;28;20094;-75
2022/09/21 06:01:53;;;;;;;20.85;7.45;;;;;;;-142.57;100.00;68379.81;5045254;28;20053;-76
2022/09/21 06:04:19;;;;;;;14.43;7.45;;;;;;;-142.57;100.00;68379.81;5013355;28;20129;-80
2022/09/21 06:06:44;;;;;;;12.30;7.00;;;;;;;-142.57;100.00;68379.81;5010313;28;20044;-77
2022/09/21 06:09:09;;;;;;;9.27;6.75;;;;;;;-142.57;100.00;68379.81;5015367;28;20322;-78
2022/09/21 06:11:35;;;;;;;10.13;7.78;;;;;;;-142.57;100.00;68379.81;5014159;28;20033;-75
2022/09/21 06:14:01;;;;;;;9.68;7.85;;;;;;;-142.57;100.00;68379.81;5010143;28;20110;-78
2022/09/21 06:16:35;;;;;;;11.07;8.38;;;;;;;-142.57;100.00;68379.81;5010895;28;20029;-77
2022/09/21 06:19:01;;;;;;;12.02;7.88;;;;;;;-142.57;100.00;68379.81;4999182;28;20029;-78
2022/09/21 06:21:26;;;;;;;10.68;7.70;;;;;;;-142.57;100.00;68379.81;5011791;28;20939;-78
2022/09/21 06:23:51;;;;;;;14.63;8.75;;;;;;;-142.57;100.00;68379.81;5018031;28;20025;-77
2022/09/21 06:26:17;;;;;;;11.57;8.93;;;;;;;-142.57;100.00;68379.81;5038269;28;20044;-78
2022/09/21 06:28:42;;;;;;;12.32;8.43;;;;;;;-142.57;100.00;68379.81;5042155;28;20037;-78
2022/09/21 06:31:08;;;;;;;14.60;7.60;;;;;;;-142.57;100.00;68379.81;5035040;28;20025;-79
2022/09/21 06:33:34;;;;;;;12.52;7.97;;;;;;;-142.57;100.00;68379.81;5036150;28;20094;-78
2022/09/21 06:36:00;;;;;;;12.68;8.30;;;;;;;-142.57;100.00;68379.81;5037696;28;20098;-77
2022/09/21 06:38:26;;;;;;;16.35;9.18;;;;;;;-142.57;100.00;68379.81;5019011;28;20028;-76
2022/09/21 06:40:52;;;;;;;16.30;8.85;;;;;;;-142.57;100.00;68379.81;5017681;28;20086;-75
2022/09/21 06:43:18;;;;;;;10.02;7.65;;;;;;;-142.57;100.00;68379.81;5018088;28;20902;-78
2022/09/21 06:45:51;;;;;;;14.15;8.52;;;;;;;-142.57;100.00;68379.81;5018379;28;20140;-78
2022/09/21 06:48:17;;;;;;;15.90;10.05;;;;;;;-142.57;100.00;68379.81;5018963;28;20036;-78
2022/09/21 06:50:42;;;;;;;14.32;10.63;;;;;;;-142.57;100.00;68379.81;5017862;28;20032;-77
2022/09/21 06:53:08;;;;;;;14.73;11.50;;;;;;;-142.57;100.00;68379.81;5015607;28;20024;-78
2022/09/21 06:55:33;;;;;;;22.58;11.50;;;;;;;-142.57;100.00;68379.81;5015814;28;20833;-77
2022/09/21 06:58:03;;;;;;;20.02;11.18;;;;;;;-142.57;100.00;68379.81;5020547;28;20844;-77
2022/09/21 07:00:29;;;;;;;16.42;11.93;;;;;;;-142.57;100.00;68379.81;5013817;28;20029;-77
2022/09/21 07:02:54;;;;;;;15.10;11.85;;;;;;;-142.57;100.00;68379.81;5021900;28;20944;-77
2022/09/21 07:05:20;;;;;;;16.08;12.20;;;;;;;-142.57;100.00;68379.81;5016904;28;20039;-77
2022/09/21 07:07:45;;;;;;;19.58;12.25;;;;;;;-142.57;100.00;68379.81;5026107;28;20858;-76
2022/09/21 07:10:10;;;;;;;18.13;11.85;;;;;;;-142.57;100.00;68379.81;5027946;28;20039;-77
2022/09/21 07:12:36;;;;;;;15.30;12.63;;;;;;;-142.57;100.00;68379.81;5031620;28;20563;-77
2022/09/21 07:15:03;;;;;;;18.88;13.98;;;;;;;-142.57;100.00;68379.81;5031850;28;20899;-76
2022/09/21 07:17:33;;;;;;;22.15;17.83;;;;;;;-142.57;100.00;68379.81;5056104;28;20439;-77
2022/09/21 07:20:00;;;;;;;22.48;16.60;;;;;;;-142.57;100.00;68379.81;5053309;28;20028;-77
2022/09/21 07:22:27;;;;;;;21.85;17.10;;;;;;;-142.57;100.00;68379.81;5047805;28;20032;-77
2022/09/21 07:24:53;;;;;;;21.38;14.20;;;;;;;-142.57;100.00;68379.81;5053663;28;20025;-75
2022/09/21 07:27:18;;;;;;;29.27;16.77;;;;;;;-142.57;100.00;68379.81;5054082;28;20390;-75
2022/09/21 07:29:44;;;;;;;23.63;17.92;;;;;;;-142.57;100.00;68379.81;5067083;28;20348;-76
2022/09/21 07:32:11;;;;;;;19.58;16.98;;;;;;;-142.57;100.00;68379.81;5053878;28;20025;-79
2022/09/21 07:34:37;;;;;;;18.08;16.15;;;;;;;-142.57;100.00;68379.81;5053780;28;20426;-76
2022/09/21 07:37:02;;;;;;;28.15;19.77;;;;;;;-142.57;100.00;68379.81;5060318;28;20017;-77
2022/09/21 07:39:28;;;;;;;26.92;21.38;;;;;;;-142.57;100.00;68379.81;5052640;28;20481;-77
2022/09/21 07:41:53;;;;;;;29.13;20.67;;;;;;;-142.57;100.00;68379.81;5045133;28;20067;-77
2022/09/21 07:44:21;;;;;;;32.33;22.80;;;;;;;-142.57;100.00;68379.81;5040366;28;20029;-77
2022/09/21 07:46:47;;;;;;;29.42;22.20;;;;;;;-142.57;100.00;68379.81;5046585;28;20031;-78
2022/09/21 07:49:13;;;;;;;29.05;23.33;;;;;;;-142.57;100.00;68379.81;5040552;28;20036;-77
2022/09/21 07:51:38;;;;;;;26.27;23.15;;;;;;;-142.57;100.00;68379.81;5047154;28;20024;-77
2022/09/21 07:54:04;;;;;;;28.45;24.75;;;;;;;-142.57;100.00;68379.81;5049006;28;20428;-77
2022/09/21 07:56:29;;;;;;;25.80;22.15;;;;;;;-142.57;100.00;68379.81;5050853;28;20232;-77
2022/09/21 07:59:07;;;;;;;24.30;21.23;;;;;;;-142.57;100.00;68379.81;5054010;28;20446;-78
2022/09/21 08:01:32;;;;;;;25.02;22.42;;;;;;;-142.57;100.00;68379.81;5049284;28;20033;-77
2022/09/21 08:03:58;;;;;;;31.05;23.02;;;;;;;-142.57;100.00;68379.81;5050778;28;20030;-76
2022/09/21 08:06:26;;;;;;;21.88;18.67;;;;;;;-142.57;100.00;68379.81;5083000;28;20039;-77
2022/09/21 08:08:52;;;;;;;27.85;22.80;;;;;;;-142.57;100.00;68379.81;5046465;28;20033;-77
2022/09/21 08:11:21;;;;;;;28.70;21.45;;;;;;;-142.57;100.00;68379.81;5049583;28;20051;-77
2022/09/21 08:13:47;;;;;;;35.05;23.63;;;;;;;-142.57;100.00;68379.81;5050847;28;20029;-77
2022/09/21 08:16:13;;;;;;;24.70;22.10;;;;;;;-142.57;100.00;68379.81;5045667;28;20116;-77
2022/09/21 08:18:40;;;;;;;26.20;22.75;;;;;;;-142.57;100.00;68379.81;5035374;28;20136;-77
2022/09/21 08:21:06;;;;;;;26.05;19.08;;;;;;;-142.57;100.00;68379.81;5066883;28;20040;-77
2022/09/21 08:23:31;;;;;;;24.10;20.70;;;;;;;-142.57;100.00;68379.81;5053020;28;20099;-77
2022/09/21 08:26:01;;;;;;;23.15;19.30;;;;;;;-142.57;100.00;68379.81;5039533;28;20192;-77
2022/09/21 08:28:30;;;;;;;23.75;19.67;;;;;;;-142.57;100.00;68379.81;5036682;28;20037;-77
2022/09/21 08:30:59;;;;;;;24.73;18.48;;;;;;;-142.57;100.00;68379.81;5085581;28;20052;-77
2022/09/21 08:33:26;;;;;;;21.65;16.55;;;;;;;-142.57;100.00;68379.81;5049792;28;20032;-78
2022/09/21 08:35:56;;;;;;;21.42;16.63;;;;;;;-142.57;100.00;68379.81;5053202;28;20028;-77
2022/09/21 08:38:22;;;;;;;19.63;17.00;;;;;;;-142.57;100.00;68379.81;5048703;28;20144;-78
2022/09/21 08:40:48;;;;;;;23.48;17.10;;;;;;;-142.57;100.00;68379.81;5048802;28;20111;-78
2022/09/21 08:43:35;;;;;;;25.83;16.38;;;;;;;-142.57;100.00;68379.81;5083209;28;20483;-77
2022/09/21 08:46:04;;;;;;;19.52;14.57;;;;;;;-142.57;100.00;68379.81;5050477;28;20107;-77
2022/09/21 08:48:33;;;;;;;19.95;15.27;;;;;;;-142.57;100.00;68379.81;5086540;28;20028;-78
2022/09/21 08:51:04;;;;;;;16.02;12.75;;;;;;;-142.57;100.00;68379.81;5040501;28;20025;-78
2022/09/21 08:53:33;;;;;;;15.98;11.13;;;;;;;-142.57;100.00;68379.81;5076888;28;20036;-79
2022/09/21 08:56:00;;;;;;;18.38;12.80;;;;;;;-142.57;100.00;68379.81;5051633;28;20025;-78
2022/09/21 08:58:27;;;;;;;16.77;12.07;;;;;;;-142.57;100.00;68379.81;5051268;28;20443;-77
2022/09/21 09:01:02;;;;;;;15.32;11.65;;;;;;;-142.57;100.00;68379.81;5057037;28;20024;-78
2022/09/21 09:03:47;;;;;;;;;;;;;;;-142.57;100.00;68379.81;5054571;28;20436;-79
2022/09/21 09:06:31;;;;;;;14.05;10.90;;;;;;;-142.57;100.00;68379.81;5042830;28;19946;-78
2022/09/21 09:09:14;;;;;;;21.73;11.20;;;;;;;-142.57;100.00;68379.81;5050923;28;20479;-78
2022/09/21 09:11:40;;;;;;;16.67;11.98;;;;;;;-142.57;100.00;68379.81;5046972;28;20427;-78
2022/09/21 09:14:41;;;;;;;11.90;8.73;;;;;;;-142.57;100.00;68379.81;5052266;28;20025;-79
2022/09/21 09:17:22;;;;;;;18.48;7.55;;;;;;;-142.57;100.00;68379.81;5032651;28;20044;-79
2022/09/21 09:20:00;;;;;;;12.43;8.68;;;;;;;-142.57;100.00;68379.81;5052128;28;20029;-79
2022/09/21 09:22:33;;;;;;;15.05;9.27;;;;;;;-142.57;100.00;68379.81;5052566;28;20029;-78
2022/09/21 09:25:04;;;;;;;10.32;6.78;;;;;;;-142.57;100.00;68379.81;5053043;28;20028;-78
2022/09/21 09:27:34;;;;;;;9.13;6.43;;;;;;;-142.57;100.00;68379.81;5057831;28;20025;-78
2022/09/21 09:29:59;;;;;;;9.50;7.45;;;;;;;-142.57;100.00;68379.81;5050970;28;20558;-78
2022/09/21 09:32:31;;;;;;;18.95;8.25;;;;;;;-142.57;100.00;68379.81;5051956;28;20143;-78
2022/09/21 09:35:32;;;;;;;14.77;8.90;;;;;;;-142.57;100.00;68379.81;5050051;28;20040;-79
2022/09/21 09:38:04;;;;;;;12.23;8.20;;;;;;;-142.57;100.00;68379.81;5039191;28;20160;-78
2022/09/21 09:40:51;;;;;;;10.82;7.93;;;;;;;-142.57;100.00;68379.81;5051614;28;20048;-79
2022/09/21 09:43:49;;;;;;;12.38;8.05;;;;;;;-142.57;100.00;68379.81;5084036;28;20105;-79
2022/09/21 09:46:35;;;;;;;12.25;8.60;;;;;;;-142.57;100.00;68379.81;5040039;28;20029;-79
2022/09/21 09:49:31;;;;;;;13.10;8.80;;;;;;;-142.57;100.00;68379.81;5056011;28;20094;-79
2022/09/21 09:51:56;;;;;;;18.17;7.63;;;;;;;-142.57;100.00;68379.81;5034400;28;20040;-79
2022/09/21 09:54:24;;;;;;;9.48;7.97;;;;;;;-142.57;100.00;68379.81;5068131;28;20104;-77
2022/09/21 09:56:49;;;;;;;15.75;8.02;;;;;;;-142.57;100.00;68379.81;5062132;28;20044;-75
2022/09/21 09:59:35;;;;;;;12.98;7.50;;;;;;;-142.57;100.00;68379.81;5042868;28;20037;-80
2022/09/21 10:02:07;;;;;;;11.23;7.15;;;;;;;-142.57;100.00;68379.81;5051399;28;20097;-77
2022/09/21 10:04:33;;;;;;;12.93;6.45;;;;;;;-142.57;100.00;68379.81;5056295;28;20028;-77
2022/09/21 10:06:59;;;;;;;10.70;5.35;;;;;;;-142.57;100.00;68379.81;5068094;28;20025;-76
2022/09/21 10:09:31;;;;;;;9.95;4.40;;;;;;;-142.57;100.00;68379.81;5072073;28;20609;-75
2022/09/21 10:12:02;;;;;;;10.68;3.72;;;;;;;-142.57;100.00;68379.81;5069452;28;20107;-75
2022/09/21 10:14:31;;;;;;;6.95;5.22;;;;;;;-142.57;100.00;68379.81;5076192;28;20077;-77
2022/09/21 10:17:03;;;;;;;7.97;3.88;;;;;;;-142.57;100.00;68379.81;5068812;28;20029;-79
2022/09/21 10:19:29;;;;;;;8.27;4.05;;;;;;;-142.57;100.00;68379.81;5075755;28;20028;-77
2022/09/21 10:21:59;;;;;;;6.55;4.20;;;;;;;-142.57;100.00;68379.81;5064194;28;20025;-79
2022/09/21 10:24:34;;;;;;;5.63;2.60;;;;;;;-142.57;100.00;68379.81;5057384;28;20029;-80
2022/09/21 10:27:06;;;;;;;11.18;3.80;;;;;;;-142.57;100.00;68379.81;5051224;28;20364;-80
2022/09/21 10:29:38;;;;;;;14.43;3.55;;;;;;;-142.57;100.00;68379.81;5057249;28;20083;-80
2022/09/21 10:32:17;;;;;;;11.88;4.30;;;;;;;-142.57;100.00;68379.81;5046747;28;20464;-79
2022/09/21 10:35:18;;;;;;;15.68;3.10;;;;;;;-142.57;100.00;68379.81;5047386;28;20025;-79
2022/09/21 10:37:48;;;;;;;6.05;3.20;;;;;;;-142.57;100.00;68379.81;5045344;28;20120;-80
2022/09/21 10:40:16;;;;;;;5.85;3.10;;;;;;;-142.57;100.00;68379.81;5062562;28;20403;-79
2022/09/21 10:42:42;;;;;;;8.48;3.38;;;;;;;-142.57;100.00;68379.81;5058521;28;20044;-80
2022/09/21 10:45:17;;;;;;;5.93;2.88;;;;;;;-142.57;100.00;68379.81;5047310;28;20044;-81
2022/09/21 10:47:46;;;;;;;8.80;4.05;;;;;;;-142.57;100.00;68379.81;5035073;28;20021;-78
2022/09/21 10:50:36;;;;;;;9.10;3.95;;;;;;;-142.57;100.00;68379.81;5062857;28;20039;-78
2022/09/21 10:53:11;;;;;;;9.95;2.60;;;;;;;-142.57;100.00;68379.81;5057043;28;20102;-82
2022/09/21 10:55:39;;;;;;;5.93;2.58;;;;;;;-142.57;100.00;68379.81;5054098;28;20033;-80
2022/09/21 10:58:10;;;;;;;6.85;2.90;;;;;;;-142.57;100.00;68379.81;5061859;28;20017;-86
2022/09/21 11:00:50;;;;;;;10.68;3.75;;;;;;;-142.57;100.00;68379.81;5042926;28;20487;-84
2022/09/21 11:03:39;;;;;;;5.97;2.85;;;;;;;-142.57;100.00;68379.81;5057864;28;20029;-85
2022/09/21 11:06:13;;;;;;;7.65;3.10;;;;;;;-142.57;100.00;68379.81;5047069;28;20033;-84
2022/09/21 11:08:58;;;;;;;4.82;3.08;;;;;;;-142.57;100.00;68379.81;5064033;28;20386;-79
2022/09/21 11:11:33;;;;;;;5.10;2.60;;;;;;;-142.57;100.00;68379.81;5037228;28;20060;-84
2022/09/21 11:14:24;;;;;;;7.72;3.45;;;;;;;-142.57;100.00;68379.81;5058549;28;20388;-86
2022/09/21 11:17:00;;;;;;;7.07;3.42;;;;;;;-142.57;100.00;68379.81;5036115;28;20053;-85
2022/09/21 11:19:38;;;;;;;8.30;3.90;;;;;;;-142.57;100.00;68379.81;5054144;28;20143;-84